Terminal Aerodrome Forecast
Issued by NWS

Home | Current Version | Previous Version | Text Only | Print | Product List | Glossary On
Versions: 1 2 3 4 5 6 7 8 9 10 11 12 13
467
FTUS45 KREV 211729
TAFMMH
TAF
KMMH 211729Z 2118/2218 27015G25KT P6SM VCSH SCT040 BKN060
     FM212300 26012G23KT 5SM -SHSN BKN030 OVC050
     FM220500 27008KT P6SM SCT050 BKN100=

USA.gov is the U.S. government's official web portal to all federal, state and local government web resources and services.